sensor_id;sensor_type;location;lat;lon;timestamp;pressure;altitude;pressure_sealevel;temperature;humidity
13476;BME280;6810;63.824;20.288;2023-06-04T00:00:44;101378.91;;;10.64;51.77
13476;BME280;6810;63.824;20.288;2023-06-04T00:03:43;101398.84;;;10.74;51.88
13476;BME280;6810;63.824;20.288;2023-06-04T00:06:30;101368.03;;;10.49;51.97
13476;BME280;6810;63.824;20.288;2023-06-04T00:09:18;101399.28;;;10.65;52.37
13476;BME280;6810;63.824;20.288;2023-06-04T00:12:06;101410.75;;;10.67;52.06
13476;BME280;6810;63.824;20.288;2023-06-04T00:14:53;101398.69;;;10.58;52.05
13476;BME280;6810;63.824;20.288;2023-06-04T00:17:40;101415.56;;;10.59;52.33
13476;BME280;6810;63.824;20.288;2023-06-04T00:20:28;101411.38;;;10.53;52.49
13476;BME280;6810;63.824;20.288;2023-06-04T00:23:15;101415.13;;;10.49;52.71
13476;BME280;6810;63.824;20.288;2023-06-04T00:26:03;101409.94;;;10.46;52.66
13476;BME280;6810;63.824;20.288;2023-06-04T00:28:50;101418.00;;;10.44;53.56
13476;BME280;6810;63.824;20.288;2023-06-04T00:31:38;101407.63;;;10.38;53.34
13476;BME280;6810;63.824;20.288;2023-06-04T00:34:25;101421.91;;;10.37;53.11
13476;BME280;6810;63.824;20.288;2023-06-04T00:37:12;101412.31;;;10.33;52.96
13476;BME280;6810;63.824;20.288;2023-06-04T00:39:59;101416.13;;;10.28;52.85
13476;BME280;6810;63.824;20.288;2023-06-04T00:42:46;101407.75;;;10.17;53.34
13476;BME280;6810;63.824;20.288;2023-06-04T00:45:34;101416.47;;;10.20;53.79
13476;BME280;6810;63.824;20.288;2023-06-04T00:48:21;101426.41;;;10.17;54.01
13476;BME280;6810;63.824;20.288;2023-06-04T00:51:09;101423.00;;;10.13;53.62
13476;BME280;6810;63.824;20.288;2023-06-04T00:53:56;101427.34;;;10.16;54.41
13476;BME280;6810;63.824;20.288;2023-06-04T00:56:43;101426.53;;;10.14;53.63
13476;BME280;6810;63.824;20.288;2023-06-04T00:59:32;101426.53;;;10.14;54.05
13476;BME280;6810;63.824;20.288;2023-06-04T01:02:21;101429.28;;;10.12;54.71
13476;BME280;6810;63.824;20.288;2023-06-04T01:08:26;101424.19;;;10.06;54.79
13476;BME280;6810;63.824;20.288;2023-06-04T01:11:14;101427.81;;;10.05;54.65
13476;BME280;6810;63.824;20.288;2023-06-04T01:14:05;101426.91;;;10.05;54.15
13476;BME280;6810;63.824;20.288;2023-06-04T01:16:57;101432.31;;;10.03;54.25
13476;BME280;6810;63.824;20.288;2023-06-04T01:23:10;101436.78;;;10.03;54.65
13476;BME280;6810;63.824;20.288;2023-06-04T01:26:02;101414.16;;;9.93;54.94
13476;BME280;6810;63.824;20.288;2023-06-04T01:28:50;101432.38;;;10.02;54.51
13476;BME280;6810;63.824;20.288;2023-06-04T01:31:38;101423.66;;;9.98;54.96
13476;BME280;6810;63.824;20.288;2023-06-04T01:34:25;101423.72;;;9.97;54.54
13476;BME280;6810;63.824;20.288;2023-06-04T01:37:12;101423.13;;;9.90;54.67
13476;BME280;6810;63.824;20.288;2023-06-04T01:39:59;101428.31;;;9.93;54.99
13476;BME280;6810;63.824;20.288;2023-06-04T01:42:46;101437.31;;;9.91;55.98
13476;BME280;6810;63.824;20.288;2023-06-04T01:45:34;101437.38;;;9.89;55.66
13476;BME280;6810;63.824;20.288;2023-06-04T01:48:21;101436.50;;;9.89;55.75
13476;BME280;6810;63.824;20.288;2023-06-04T01:51:08;101440.03;;;9.89;56.20
13476;BME280;6810;63.824;20.288;2023-06-04T01:53:55;101438.19;;;9.91;55.41
13476;BME280;6810;63.824;20.288;2023-06-04T01:56:43;101438.97;;;9.93;56.42
13476;BME280;6810;63.824;20.288;2023-06-04T01:59:30;101442.44;;;9.95;55.59
13476;BME280;6810;63.824;20.288;2023-06-04T02:02:17;101438.88;;;9.96;56.28
13476;BME280;6810;63.824;20.288;2023-06-04T02:05:05;101424.66;;;9.96;56.61
13476;BME280;6810;63.824;20.288;2023-06-04T02:07:55;101444.69;;;10.04;56.46
13476;BME280;6810;63.824;20.288;2023-06-04T02:10:42;101408.56;;;9.79;56.48
13476;BME280;6810;63.824;20.288;2023-06-04T02:13:30;101442.72;;;10.09;56.24
13476;BME280;6810;63.824;20.288;2023-06-04T02:16:17;101450.59;;;10.12;56.51
13476;BME280;6810;63.824;20.288;2023-06-04T02:19:04;101449.56;;;10.15;56.72
13476;BME280;6810;63.824;20.288;2023-06-04T02:21:55;101453.91;;;10.17;56.62
13476;BME280;6810;63.824;20.288;2023-06-04T02:24:42;101435.69;;;10.08;56.41
13476;BME280;6810;63.824;20.288;2023-06-04T02:27:29;101458.97;;;10.23;55.69
13476;BME280;6810;63.824;20.288;2023-06-04T02:30:16;101458.03;;;10.24;56.36
13476;BME280;6810;63.824;20.288;2023-06-04T02:33:04;101450.97;;;10.23;55.82
13476;BME280;6810;63.824;20.288;2023-06-04T02:35:51;101471.94;;;10.31;56.62
13476;BME280;6810;63.824;20.288;2023-06-04T02:38:38;101479.88;;;10.32;56.24
13476;BME280;6810;63.824;20.288;2023-06-04T02:41:25;101477.06;;;10.35;55.67
13476;BME280;6810;63.824;20.288;2023-06-04T02:44:13;101478.84;;;10.35;55.83
13476;BME280;6810;63.824;20.288;2023-06-04T02:47:00;101479.72;;;10.35;55.96
13476;BME280;6810;63.824;20.288;2023-06-04T02:49:47;101476.84;;;10.40;56.08
13476;BME280;6810;63.824;20.288;2023-06-04T02:52:34;101474.25;;;10.38;56.58
13476;BME280;6810;63.824;20.288;2023-06-04T02:55:22;101486.56;;;10.41;56.51
13476;BME280;6810;63.824;20.288;2023-06-04T02:58:09;101490.91;;;10.43;56.43
13476;BME280;6810;63.824;20.288;2023-06-04T03:00:56;101505.09;;;10.44;55.67
13476;BME280;6810;63.824;20.288;2023-06-04T03:03:44;101501.56;;;10.43;56.71
13476;BME280;6810;63.824;20.288;2023-06-04T03:06:32;101478.16;;;10.31;56.52
13476;BME280;6810;63.824;20.288;2023-06-04T03:09:19;101496.19;;;10.45;55.74
13476;BME280;6810;63.824;20.288;2023-06-04T03:12:06;101500.41;;;10.49;56.33
13476;BME280;6810;63.824;20.288;2023-06-04T03:14:54;101504.81;;;10.50;55.63
13476;BME280;6810;63.824;20.288;2023-06-04T03:17:41;101494.56;;;10.41;55.63
13476;BME280;6810;63.824;20.288;2023-06-04T03:20:29;101510.88;;;10.53;56.71
13476;BME280;6810;63.824;20.288;2023-06-04T03:23:16;101510.81;;;10.55;56.06
13476;BME280;6810;63.824;20.288;2023-06-04T03:26:04;101477.00;;;10.37;56.32
13476;BME280;6810;63.824;20.288;2023-06-04T03:28:52;101509.09;;;10.54;56.32
13476;BME280;6810;63.824;20.288;2023-06-04T03:31:39;101517.78;;;10.57;56.40
13476;BME280;6810;63.824;20.288;2023-06-04T03:34:27;101513.19;;;10.61;56.51
13476;BME280;6810;63.824;20.288;2023-06-04T03:37:17;101517.53;;;10.64;55.31
13476;BME280;6810;63.824;20.288;2023-06-04T03:40:05;101524.59;;;10.65;55.47
13476;BME280;6810;63.824;20.288;2023-06-04T03:42:53;101527.19;;;10.66;55.86
13476;BME280;6810;63.824;20.288;2023-06-04T03:45:41;101528.34;;;10.61;56.38
13476;BME280;6810;63.824;20.288;2023-06-04T03:48:29;101529.78;;;10.68;55.26
13476;BME280;6810;63.824;20.288;2023-06-04T03:51:16;101537.63;;;10.71;55.25
13476;BME280;6810;63.824;20.288;2023-06-04T03:54:05;101541.09;;;10.73;56.21
13476;BME280;6810;63.824;20.288;2023-06-04T03:56:52;101523.00;;;10.61;55.21
13476;BME280;6810;63.824;20.288;2023-06-04T03:59:39;101539.22;;;10.75;55.91
13476;BME280;6810;63.824;20.288;2023-06-04T04:02:26;101523.72;;;10.64;55.14
13476;BME280;6810;63.824;20.288;2023-06-04T04:05:21;101549.75;;;10.78;55.79
13476;BME280;6810;63.824;20.288;2023-06-04T04:08:09;101544.34;;;10.79;55.11
13476;BME280;6810;63.824;20.288;2023-06-04T04:10:59;101545.06;;;10.83;54.78
13476;BME280;6810;63.824;20.288;2023-06-04T04:13:47;101553.88;;;10.85;55.71
13476;BME280;6810;63.824;20.288;2023-06-04T04:16:35;101548.63;;;10.83;54.66
13476;BME280;6810;63.824;20.288;2023-06-04T04:19:22;101552.94;;;10.86;54.54
13476;BME280;6810;63.824;20.288;2023-06-04T04:22:10;101549.25;;;10.88;54.99
13476;BME280;6810;63.824;20.288;2023-06-04T04:24:57;101541.53;;;10.82;55.09
13476;BME280;6810;63.824;20.288;2023-06-04T04:27:44;101556.25;;;10.91;54.49
13476;BME280;6810;63.824;20.288;2023-06-04T04:30:36;101551.72;;;10.93;55.14
13476;BME280;6810;63.824;20.288;2023-06-04T04:33:23;101503.47;;;10.60;54.74
13476;BME280;6810;63.824;20.288;2023-06-04T04:36:12;101564.03;;;10.95;54.07
13476;BME280;6810;63.824;20.288;2023-06-04T04:39:00;101563.09;;;10.96;55.02
13476;BME280;6810;63.824;20.288;2023-06-04T04:41:47;101563.03;;;10.98;54.00
13476;BME280;6810;63.824;20.288;2023-06-04T04:44:34;101566.50;;;11.00;54.43
13476;BME280;6810;63.824;20.288;2023-06-04T04:47:25;101565.56;;;11.01;53.74
13476;BME280;6810;63.824;20.288;2023-06-04T04:50:12;101573.47;;;11.02;54.12
13476;BME280;6810;63.824;20.288;2023-06-04T04:53:01;101574.28;;;11.04;53.87
13476;BME280;6810;63.824;20.288;2023-06-04T04:55:48;101573.28;;;11.07;54.31
13476;BME280;6810;63.824;20.288;2023-06-04T04:58:40;101582.06;;;11.09;54.59
13476;BME280;6810;63.824;20.288;2023-06-04T05:01:27;101574.00;;;11.10;54.33
13476;BME280;6810;63.824;20.288;2023-06-04T05:04:14;101570.38;;;11.11;53.79
13476;BME280;6810;63.824;20.288;2023-06-04T05:07:02;101569.53;;;11.11;54.59
13476;BME280;6810;63.824;20.288;2023-06-04T05:09:49;101581.66;;;11.18;53.78
13476;BME280;6810;63.824;20.288;2023-06-04T05:12:38;101578.84;;;11.21;53.92
13476;BME280;6810;63.824;20.288;2023-06-04T05:15:33;101585.84;;;11.23;53.62
13476;BME280;6810;63.824;20.288;2023-06-04T05:18:23;101591.13;;;11.25;54.06
13476;BME280;6810;63.824;20.288;2023-06-04T05:21:14;101590.03;;;11.29;53.86
13476;BME280;6810;63.824;20.288;2023-06-04T05:24:03;101590.81;;;11.31;53.19
13476;BME280;6810;63.824;20.288;2023-06-04T05:26:51;101594.25;;;11.33;54.21
13476;BME280;6810;63.824;20.288;2023-06-04T05:29:38;101597.72;;;11.35;53.59
13476;BME280;6810;63.824;20.288;2023-06-04T05:32:25;101603.88;;;11.37;53.15
13476;BME280;6810;63.824;20.288;2023-06-04T05:35:15;101599.22;;;11.40;53.16
13476;BME280;6810;63.824;20.288;2023-06-04T05:38:02;101606.25;;;11.43;53.85
13476;BME280;6810;63.824;20.288;2023-06-04T05:40:49;101602.63;;;11.44;53.17
13476;BME280;6810;63.824;20.288;2023-06-04T05:43:38;101599.00;;;11.45;52.83
13476;BME280;6810;63.824;20.288;2023-06-04T05:46:25;101605.09;;;11.48;52.70
13476;BME280;6810;63.824;20.288;2023-06-04T05:49:13;101596.03;;;11.51;52.64
13476;BME280;6810;63.824;20.288;2023-06-04T05:52:00;101595.91;;;11.54;53.39
13476;BME280;6810;63.824;20.288;2023-06-04T05:54:48;101615.41;;;11.56;52.49
13476;BME280;6810;63.824;20.288;2023-06-04T05:57:38;101617.06;;;11.58;53.16
13476;BME280;6810;63.824;20.288;2023-06-04T06:00:26;101607.22;;;11.59;52.75
13476;BME280;6810;63.824;20.288;2023-06-04T06:03:13;101607.16;;;11.60;52.29
13476;BME280;6810;63.824;20.288;2023-06-04T06:06:00;101613.25;;;11.64;53.34
13476;BME280;6810;63.824;20.288;2023-06-04T06:08:48;101615.72;;;11.68;53.09
13476;BME280;6810;63.824;20.288;2023-06-04T06:11:36;101609.41;;;11.69;53.07
13476;BME280;6810;63.824;20.288;2023-06-04T06:14:23;101604.16;;;11.68;52.81
13476;BME280;6810;63.824;20.288;2023-06-04T06:17:10;101619.81;;;11.75;53.04
13476;BME280;6810;63.824;20.288;2023-06-04T06:19:58;101581.56;;;11.56;52.95
13476;BME280;6810;63.824;20.288;2023-06-04T06:22:46;101622.16;;;11.81;52.32
13476;BME280;6810;63.824;20.288;2023-06-04T06:25:36;101612.22;;;11.85;52.71
13476;BME280;6810;63.824;20.288;2023-06-04T06:28:27;101620.88;;;11.90;52.82
13476;BME280;6810;63.824;20.288;2023-06-04T06:31:15;101606.56;;;11.91;52.70
13476;BME280;6810;63.824;20.288;2023-06-04T06:34:02;101622.13;;;12.00;51.94
13476;BME280;6810;63.824;20.288;2023-06-04T06:36:49;101566.22;;;11.78;52.26
13476;BME280;6810;63.824;20.288;2023-06-04T06:39:37;101617.94;;;12.13;51.75
13476;BME280;6810;63.824;20.288;2023-06-04T06:42:24;101610.47;;;12.19;52.78
13476;BME280;6810;63.824;20.288;2023-06-04T06:45:12;101611.94;;;12.25;52.06
13476;BME280;6810;63.824;20.288;2023-06-04T06:48:03;101606.53;;;12.27;51.50
13476;BME280;6810;63.824;20.288;2023-06-04T06:50:50;101615.03;;;12.35;51.75
13476;BME280;6810;63.824;20.288;2023-06-04T06:53:37;101615.63;;;12.40;51.62
13476;BME280;6810;63.824;20.288;2023-06-04T06:56:25;101623.50;;;12.43;51.32
13476;BME280;6810;63.824;20.288;2023-06-04T06:59:12;101625.00;;;12.48;50.74
13476;BME280;6810;63.824;20.288;2023-06-04T07:01:59;101614.41;;;12.47;49.86
13476;BME280;6810;63.824;20.288;2023-06-04T07:04:46;101608.56;;;12.56;49.98
13476;BME280;6810;63.824;20.288;2023-06-04T07:07:33;101617.47;;;12.56;49.65
13476;BME280;6810;63.824;20.288;2023-06-04T07:10:21;101630.13;;;12.70;50.12
13476;BME280;6810;63.824;20.288;2023-06-04T07:13:08;101622.69;;;12.75;50.46
13476;BME280;6810;63.824;20.288;2023-06-04T07:15:55;101621.53;;;12.80;49.74
13476;BME280;6810;63.824;20.288;2023-06-04T07:18:42;101617.56;;;12.87;49.93
13476;BME280;6810;63.824;20.288;2023-06-04T07:21:29;101628.88;;;12.92;49.25
13476;BME280;6810;63.824;20.288;2023-06-04T07:24:17;101625.00;;;12.98;48.78
13476;BME280;6810;63.824;20.288;2023-06-04T07:27:13;101632.81;;;13.02;48.37
13476;BME280;6810;63.824;20.288;2023-06-04T07:30:01;101630.69;;;13.09;49.07
13476;BME280;6810;63.824;20.288;2023-06-04T07:32:48;101626.81;;;13.14;49.59
13476;BME280;6810;63.824;20.288;2023-06-04T07:35:35;101630.81;;;13.23;48.85
13476;BME280;6810;63.824;20.288;2023-06-04T07:38:22;101635.84;;;13.29;48.31
13476;BME280;6810;63.824;20.288;2023-06-04T07:41:10;101639.97;;;13.34;48.23
13476;BME280;6810;63.824;20.288;2023-06-04T07:43:57;101629.88;;;13.39;48.12
13476;BME280;6810;63.824;20.288;2023-06-04T07:46:44;101628.06;;;13.40;47.80
13476;BME280;6810;63.824;20.288;2023-06-04T07:49:31;101631.19;;;13.48;47.88
13476;BME280;6810;63.824;20.288;2023-06-04T07:52:29;101602.31;;;13.37;47.93
13476;BME280;6810;63.824;20.288;2023-06-04T07:55:16;101641.31;;;13.58;47.98
13476;BME280;6810;63.824;20.288;2023-06-04T07:58:03;101638.38;;;13.63;47.19
13476;BME280;6810;63.824;20.288;2023-06-04T08:00:50;101634.47;;;13.68;47.40
13476;BME280;6810;63.824;20.288;2023-06-04T08:03:37;101638.78;;;13.71;47.21
13476;BME280;6810;63.824;20.288;2023-06-04T08:06:25;101643.78;;;13.77;46.73
13476;BME280;6810;63.824;20.288;2023-06-04T08:09:12;101649.78;;;13.82;46.95
13476;BME280;6810;63.824;20.288;2023-06-04T08:11:59;101628.94;;;13.87;47.37
13476;BME280;6810;63.824;20.288;2023-06-04T08:14:47;101644.56;;;13.94;46.95
13476;BME280;6810;63.824;20.288;2023-06-04T08:17:50;101644.22;;;14.01;47.06
13476;BME280;6810;63.824;20.288;2023-06-04T08:20:57;101640.31;;;14.06;46.00
13476;BME280;6810;63.824;20.288;2023-06-04T08:24:04;101638.25;;;14.11;46.10
13476;BME280;6810;63.824;20.288;2023-06-04T08:27:12;101642.59;;;14.14;45.77
13476;BME280;6810;63.824;20.288;2023-06-04T08:30:19;101643.16;;;14.19;45.67
13476;BME280;6810;63.824;20.288;2023-06-04T08:33:26;101631.31;;;14.23;45.72
13476;BME280;6810;63.824;20.288;2023-06-04T08:36:33;101617.22;;;14.19;45.06
13476;BME280;6810;63.824;20.288;2023-06-04T08:39:20;101635.09;;;14.34;44.78
13476;BME280;6810;63.824;20.288;2023-06-04T08:42:15;101636.56;;;14.40;44.30
13476;BME280;6810;63.824;20.288;2023-06-04T08:45:04;101643.47;;;14.44;44.05
13476;BME280;6810;63.824;20.288;2023-06-04T08:47:54;101617.38;;;14.32;44.37
13476;BME280;6810;63.824;20.288;2023-06-04T08:50:42;101652.13;;;14.49;44.42
13476;BME280;6810;63.824;20.288;2023-06-04T08:53:32;101660.00;;;14.52;44.15
13476;BME280;6810;63.824;20.288;2023-06-04T08:56:19;101628.88;;;14.34;43.72
13476;BME280;6810;63.824;20.288;2023-06-04T08:59:07;101657.31;;;14.52;43.68
13476;BME280;6810;63.824;20.288;2023-06-04T09:01:54;101649.44;;;14.49;44.03
13476;BME280;6810;63.824;20.288;2023-06-04T09:04:43;101652.69;;;14.54;44.03
13476;BME280;6810;63.824;20.288;2023-06-04T09:07:31;101650.03;;;14.54;44.15
13476;BME280;6810;63.824;20.288;2023-06-04T09:10:22;101652.16;;;14.63;43.68
13476;BME280;6810;63.824;20.288;2023-06-04T09:13:11;101637.50;;;14.68;43.40
13476;BME280;6810;63.824;20.288;2023-06-04T09:16:03;101651.25;;;14.78;43.61
13476;BME280;6810;63.824;20.288;2023-06-04T09:18:50;101644.44;;;14.86;43.26
13476;BME280;6810;63.824;20.288;2023-06-04T09:24:45;101650.22;;;14.94;43.33
13476;BME280;6810;63.824;20.288;2023-06-04T09:27:40;101656.44;;;14.95;43.51
13476;BME280;6810;63.824;20.288;2023-06-04T09:30:27;101656.44;;;14.95;43.20
13476;BME280;6810;63.824;20.288;2023-06-04T09:33:14;101653.75;;;14.95;43.35
13476;BME280;6810;63.824;20.288;2023-06-04T09:36:01;101659.88;;;14.97;42.87
13476;BME280;6810;63.824;20.288;2023-06-04T09:38:48;101657.09;;;14.98;43.38
13476;BME280;6810;63.824;20.288;2023-06-04T09:41:36;101644.66;;;14.97;42.85
13476;BME280;6810;63.824;20.288;2023-06-04T09:44:23;101651.84;;;14.97;43.82
13476;BME280;6810;63.824;20.288;2023-06-04T09:47:10;101655.41;;;14.97;43.28
13476;BME280;6810;63.824;20.288;2023-06-04T09:49:58;101662.38;;;15.00;42.96
13476;BME280;6810;63.824;20.288;2023-06-04T09:52:45;101662.19;;;15.03;42.99
13476;BME280;6810;63.824;20.288;2023-06-04T09:55:32;101675.53;;;15.04;42.81
13476;BME280;6810;63.824;20.288;2023-06-04T09:58:19;101667.56;;;15.03;42.63
13476;BME280;6810;63.824;20.288;2023-06-04T10:01:09;101675.53;;;15.04;42.82
13476;BME280;6810;63.824;20.288;2023-06-04T10:04:03;101670.06;;;15.06;43.45
13476;BME280;6810;63.824;20.288;2023-06-04T10:06:51;101680.63;;;15.09;43.40
13476;BME280;6810;63.824;20.288;2023-06-04T10:09:39;101677.09;;;15.08;43.45
13476;BME280;6810;63.824;20.288;2023-06-04T10:12:31;101680.03;;;15.04;43.40
13476;BME280;6810;63.824;20.288;2023-06-04T10:15:22;101683.69;;;15.03;43.53
13476;BME280;6810;63.824;20.288;2023-06-04T10:18:10;101679.94;;;15.05;44.18
13476;BME280;6810;63.824;20.288;2023-06-04T10:20:58;101687.72;;;15.10;43.97
13476;BME280;6810;63.824;20.288;2023-06-04T10:23:45;101689.25;;;15.14;44.21
13476;BME280;6810;63.824;20.288;2023-06-04T10:26:33;101697.03;;;15.18;43.70
13476;BME280;6810;63.824;20.288;2023-06-04T10:29:21;101696.94;;;15.20;44.16
13476;BME280;6810;63.824;20.288;2023-06-04T10:32:09;101692.81;;;15.28;44.30
13476;BME280;6810;63.824;20.288;2023-06-04T10:34:57;101689.84;;;15.33;44.51
13476;BME280;6810;63.824;20.288;2023-06-04T10:37:45;101691.81;;;15.45;43.77
13476;BME280;6810;63.824;20.288;2023-06-04T10:40:32;101690.25;;;15.55;43.67
13476;BME280;6810;63.824;20.288;2023-06-04T10:43:20;101688.06;;;15.62;43.84
13476;BME280;6810;63.824;20.288;2023-06-04T10:46:14;101681.22;;;15.70;43.37
13476;BME280;6810;63.824;20.288;2023-06-04T10:49:02;101686.00;;;15.79;42.84
13476;BME280;6810;63.824;20.288;2023-06-04T10:51:49;101684.75;;;15.85;43.33
13476;BME280;6810;63.824;20.288;2023-06-04T10:54:36;101695.00;;;15.92;42.90
13476;BME280;6810;63.824;20.288;2023-06-04T10:57:23;101691.16;;;15.96;42.70
13476;BME280;6810;63.824;20.288;2023-06-04T11:00:11;101699.91;;;16.00;42.78
13476;BME280;6810;63.824;20.288;2023-06-04T11:02:58;101698.91;;;16.01;42.26
13476;BME280;6810;63.824;20.288;2023-06-04T11:05:47;101697.84;;;16.03;42.18
13476;BME280;6810;63.824;20.288;2023-06-04T11:08:34;101690.34;;;16.08;42.41
13476;BME280;6810;63.824;20.288;2023-06-04T11:11:21;101699.97;;;16.12;42.10
13476;BME280;6810;63.824;20.288;2023-06-04T11:14:09;101688.44;;;16.10;41.75
13476;BME280;6810;63.824;20.288;2023-06-04T11:16:56;101685.06;;;16.07;41.89
13476;BME280;6810;63.824;20.288;2023-06-04T11:19:44;101687.66;;;16.08;42.33
13476;BME280;6810;63.824;20.288;2023-06-04T11:22:15;101679.78;;;16.05;42.26
13476;BME280;6810;63.824;20.288;2023-06-04T11:25:02;101678.25;;;16.15;42.34
13476;BME280;6810;63.824;20.288;2023-06-04T11:27:52;101693.31;;;16.18;42.05
13476;BME280;6810;63.824;20.288;2023-06-04T11:30:40;101703.66;;;16.24;41.02
13476;BME280;6810;63.824;20.288;2023-06-04T11:33:27;101693.88;;;16.23;41.37
13476;BME280;6810;63.824;20.288;2023-06-04T11:36:28;101687.63;;;16.22;41.82
13476;BME280;6810;63.824;20.288;2023-06-04T11:39:16;101688.59;;;16.21;40.93
13476;BME280;6810;63.824;20.288;2023-06-04T11:42:07;101689.00;;;16.15;41.24
13476;BME280;6810;63.824;20.288;2023-06-04T11:44:57;101687.06;;;16.17;41.58
13476;BME280;6810;63.824;20.288;2023-06-04T11:47:57;101654.91;;;16.02;41.21
13476;BME280;6810;63.824;20.288;2023-06-04T11:50:44;101680.84;;;16.29;41.60
13476;BME280;6810;63.824;20.288;2023-06-04T11:53:33;101677.72;;;16.49;41.03
13476;BME280;6810;63.824;20.288;2023-06-04T11:56:20;101682.94;;;16.65;40.69
13476;BME280;6810;63.824;20.288;2023-06-04T11:59:08;101679.00;;;16.70;40.19
13476;BME280;6810;63.824;20.288;2023-06-04T12:01:55;101674.75;;;16.66;39.93
13476;BME280;6810;63.824;20.288;2023-06-04T12:04:42;101685.31;;;16.69;40.64
13476;BME280;6810;63.824;20.288;2023-06-04T12:07:29;101687.34;;;16.66;40.46
13476;BME280;6810;63.824;20.288;2023-06-04T12:10:20;101677.75;;;16.62;40.51
13476;BME280;6810;63.824;20.288;2023-06-04T12:13:08;101667.97;;;16.61;40.89
13476;BME280;6810;63.824;20.288;2023-06-04T12:15:55;101673.88;;;16.66;40.54
13476;BME280;6810;63.824;20.288;2023-06-04T12:18:42;101676.19;;;16.72;40.34
13476;BME280;6810;63.824;20.288;2023-06-04T12:21:29;101668.63;;;16.77;40.07
13476;BME280;6810;63.824;20.288;2023-06-04T12:24:17;101671.53;;;16.74;39.62
13476;BME280;6810;63.824;20.288;2023-06-04T12:27:09;101669.28;;;16.80;39.81
13476;BME280;6810;63.824;20.288;2023-06-04T12:29:59;101663.16;;;16.91;40.28
13476;BME280;6810;63.824;20.288;2023-06-04T12:32:48;101654.13;;;17.04;39.42
13476;BME280;6810;63.824;20.288;2023-06-04T12:35:35;101655.22;;;17.14;39.18
13476;BME280;6810;63.824;20.288;2023-06-04T12:38:22;101645.16;;;17.16;38.63
13476;BME280;6810;63.824;20.288;2023-06-04T12:41:11;101607.78;;;16.99;39.45
13476;BME280;6810;63.824;20.288;2023-06-04T12:43:59;101642.56;;;17.27;39.13
13476;BME280;6810;63.824;20.288;2023-06-04T12:46:47;101644.94;;;17.32;39.29
13476;BME280;6810;63.824;20.288;2023-06-04T12:49:34;101642.91;;;17.36;38.53
13476;BME280;6810;63.824;20.288;2023-06-04T12:52:21;101645.16;;;17.42;38.95
13476;BME280;6810;63.824;20.288;2023-06-04T12:55:08;101643.31;;;17.55;39.37
13476;BME280;6810;63.824;20.288;2023-06-04T12:57:55;101648.25;;;17.73;38.90
13476;BME280;6810;63.824;20.288;2023-06-04T13:00:43;101633.69;;;17.99;38.11
13476;BME280;6810;63.824;20.288;2023-06-04T13:03:30;101642.38;;;18.15;37.96
13476;BME280;6810;63.824;20.288;2023-06-04T13:06:18;101633.19;;;18.18;38.05
13476;BME280;6810;63.824;20.288;2023-06-04T17:59:08;101514.66;;;18.15;36.61
13476;BME280;6810;63.824;20.288;2023-06-04T18:01:36;101515.78;;;18.12;36.86
13476;BME280;6810;63.824;20.288;2023-06-04T18:04:03;101516.84;;;18.10;36.52
13476;BME280;6810;63.824;20.288;2023-06-04T18:06:50;101513.66;;;18.05;36.64
13476;BME280;6810;63.824;20.288;2023-06-04T18:09:37;101509.56;;;17.99;37.66
13476;BME280;6810;63.824;20.288;2023-06-04T18:12:25;101507.47;;;17.92;37.83
13476;BME280;6810;63.824;20.288;2023-06-04T18:15:12;101523.13;;;17.87;38.07
13476;BME280;6810;63.824;20.288;2023-06-04T18:18:03;101515.97;;;17.75;38.41
13476;BME280;6810;63.824;20.288;2023-06-04T18:20:50;101518.78;;;17.73;38.38
13476;BME280;6810;63.824;20.288;2023-06-04T18:23:37;101514.53;;;17.58;38.74
13476;BME280;6810;63.824;20.288;2023-06-04T18:26:24;101510.47;;;17.53;38.13
13476;BME280;6810;63.824;20.288;2023-06-04T18:29:11;101527.50;;;17.53;38.78
13476;BME280;6810;63.824;20.288;2023-06-04T18:31:58;101526.13;;;17.48;39.05
13476;BME280;6810;63.824;20.288;2023-06-04T18:34:46;101502.66;;;17.24;38.81
13476;BME280;6810;63.824;20.288;2023-06-04T18:37:33;101506.94;;;17.27;39.08
13476;BME280;6810;63.824;20.288;2023-06-04T18:40:20;101515.69;;;17.30;39.21
13476;BME280;6810;63.824;20.288;2023-06-04T18:43:07;101522.69;;;17.33;39.70
13476;BME280;6810;63.824;20.288;2023-06-04T18:45:55;101524.09;;;17.26;39.96
13476;BME280;6810;63.824;20.288;2023-06-04T18:48:45;101534.66;;;17.29;40.04
13476;BME280;6810;63.824;20.288;2023-06-04T18:51:32;101526.91;;;17.24;39.45
13476;BME280;6810;63.824;20.288;2023-06-04T18:54:19;101490.00;;;17.01;40.16
13476;BME280;6810;63.824;20.288;2023-06-04T18:57:06;101518.75;;;17.13;40.16
13476;BME280;6810;63.824;20.288;2023-06-04T18:59:54;101510.16;;;17.08;40.65
13476;BME280;6810;63.824;20.288;2023-06-04T19:02:41;101524.69;;;17.06;40.91
13476;BME280;6810;63.824;20.288;2023-06-04T19:05:28;101526.97;;;16.99;40.43
13476;BME280;6810;63.824;20.288;2023-06-04T19:08:15;101522.00;;;16.93;41.28
13476;BME280;6810;63.824;20.288;2023-06-04T19:11:02;101522.66;;;16.84;41.44
13476;BME280;6810;63.824;20.288;2023-06-04T19:13:49;101523.88;;;16.80;41.32
13476;BME280;6810;63.824;20.288;2023-06-04T19:16:36;101527.97;;;16.73;41.76
13476;BME280;6810;63.824;20.288;2023-06-04T19:19:24;101521.28;;;16.66;41.72
13476;BME280;6810;63.824;20.288;2023-06-04T19:22:11;101528.19;;;16.58;42.17
13476;BME280;6810;63.824;20.288;2023-06-04T19:24:58;101526.25;;;16.47;42.15
13476;BME280;6810;63.824;20.288;2023-06-04T19:27:45;101528.47;;;16.41;42.11
13476;BME280;6810;63.824;20.288;2023-06-04T19:30:32;101538.78;;;16.34;42.15
13476;BME280;6810;63.824;20.288;2023-06-04T19:33:19;101529.44;;;16.27;42.52
13476;BME280;6810;63.824;20.288;2023-06-04T19:36:06;101540.72;;;16.20;42.09
13476;BME280;6810;63.824;20.288;2023-06-04T19:38:53;101535.75;;;16.14;42.40